Terminal Aerodrome Forecast
Issued by NWS Burlington, VT

Home | Current Version | Previous Version | Text Only | Print | Product List | Glossary On
Versions: 1 2 3 4 5 6 7 8 9 10 11 12 13 14 15 16 17 18
000
FTUS41 KBTV 301843 AAB
TAFBTV
TAF AMD
KBTV 301843Z 3019/3118 33010KT 4SM -SN BR OVC022
      TEMPO 3019/3023 1SM -SN BKN015
     FM310000 32012G20KT 6SM -SN BR OVC025
     FM310800 34010KT P6SM OVC025
     FM311400 35008KT P6SM SCT035=

USA.gov is the U.S. government's official web portal to all federal, state and local government web resources and services.